Time;durP1;ratioP1;P1;durP2;ratioP2;P2;SDS_P1;SDS_P2;PMS_P1;PMS_P2;Temp;Humidity;BMP_temperature;BMP_pressure;BME280_temperature;BME280_humidity;BME280_pressure;Samples;Min_cycle;Max_cycle;Signal;HPM_P1;HPM_P2
2023/03/14 00:01:34;;;;;;;42.40;19.70;;;;;;;3.90;61.37;99989.44;1418347;91;21717;-81
2023/03/14 00:04:06;;;;;;;39.67;19.57;;;;;;;3.91;61.10;99991.09;1434489;91;21879;-81
2023/03/14 00:06:35;;;;;;;38.43;20.23;;;;;;;3.94;60.98;99980.87;1435718;91;22534;-80
2023/03/14 00:09:02;;;;;;;39.23;18.50;;;;;;;3.94;61.74;99976.48;1440690;91;21847;-80
2023/03/14 00:11:30;;;;;;;33.80;18.50;;;;;;;3.88;62.01;99979.55;1439324;91;21536;-80
2023/03/14 00:13:59;;;;;;;29.37;15.43;;;;;;;3.85;61.63;99974.54;1427348;91;21635;-80
2023/03/14 00:16:27;;;;;;;36.03;17.57;;;;;;;3.84;61.94;99977.64;1432782;91;21664;-79
2023/03/14 00:18:54;;;;;;;37.90;17.70;;;;;;;3.80;61.80;99972.77;1434640;91;22655;-80
2023/03/14 00:21:21;;;;;;;39.17;17.60;;;;;;;3.78;62.54;99974.66;1431743;91;21765;-80
2023/03/14 00:23:48;;;;;;;26.90;13.47;;;;;;;3.78;62.29;99978.58;1432264;91;22557;-80
2023/03/14 00:26:19;;;;;;;25.27;14.00;;;;;;;3.72;62.11;99979.05;1428547;91;21630;-80
2023/03/14 00:28:47;;;;;;;29.42;14.80;;;;;;;3.71;62.13;99974.30;1433718;91;21728;-80
2023/03/14 00:31:15;;;;;;;26.17;13.67;;;;;;;3.69;62.60;99967.02;1435801;91;21452;-80
2023/03/14 00:33:44;;;;;;;21.87;11.20;;;;;;;3.67;62.38;99965.46;1434627;91;21641;-80
2023/03/14 00:36:16;;;;;;;27.13;13.67;;;;;;;3.61;62.49;99964.97;1432467;91;21740;-80
2023/03/14 00:38:46;;;;;;;20.77;12.70;;;;;;;3.58;63.15;99965.67;1431878;91;23110;-80
2023/03/14 00:41:18;;;;;;;19.83;10.87;;;;;;;3.56;63.13;99964.47;1434496;91;23006;-80
2023/03/14 00:43:46;;;;;;;20.13;11.73;;;;;;;3.53;63.87;99966.00;1438330;91;22620;-80
2023/03/14 00:46:13;;;;;;;17.77;10.30;;;;;;;3.50;63.35;99959.69;1437211;91;21789;-80
2023/03/14 00:48:41;;;;;;;22.57;11.07;;;;;;;3.47;64.04;99957.30;1439172;91;21810;-80
2023/03/14 00:51:09;;;;;;;17.23;10.80;;;;;;;3.43;64.53;99955.87;1427963;91;22525;-80
2023/03/14 00:53:38;;;;;;;21.40;11.93;;;;;;;3.39;63.76;99938.72;1434182;91;21763;-79
2023/03/14 00:56:09;;;;;;;24.07;14.33;;;;;;;3.35;64.72;99937.30;1358811;91;21622;-80
2023/03/14 00:58:36;;;;;;;;;;;;;;;3.32;64.38;99934.91;1435495;91;22585;-81
2023/03/14 01:01:18;;;;;;;23.30;14.17;;;;;;;3.30;65.11;99928.94;1433838;91;20377;-81
2023/03/14 01:03:46;;;;;;;28.87;13.97;;;;;;;3.29;64.34;99922.05;1430471;91;22116;-81
2023/03/14 01:06:17;;;;;;;27.20;12.60;;;;;;;3.30;64.21;99919.79;1426642;91;22802;-80
2023/03/14 01:08:45;;;;;;;25.60;12.53;;;;;;;3.30;64.18;99910.63;1429652;91;22548;-81
2023/03/14 01:11:18;;;;;;;19.53;12.10;;;;;;;3.29;64.50;99915.04;1429664;91;21618;-81
2023/03/14 01:13:45;;;;;;;22.30;13.27;;;;;;;3.31;64.33;99908.37;1435767;91;21697;-80
2023/03/14 01:16:14;;;;;;;18.70;10.87;;;;;;;3.35;63.83;99901.50;1430678;91;21678;-81
2023/03/14 01:18:43;;;;;;;18.77;11.03;;;;;;;3.37;63.96;99906.16;1435352;91;21720;-81
2023/03/14 01:21:24;;;;;;;20.90;11.40;;;;;;;3.37;64.01;99897.48;1428409;91;21717;-80
2023/03/14 01:23:54;;;;;;;15.43;7.83;;;;;;;3.39;63.88;99889.02;1441948;91;21678;-80
2023/03/14 01:26:25;;;;;;;17.87;9.97;;;;;;;3.41;63.41;99881.89;1433340;91;21653;-81
2023/03/14 01:28:53;;;;;;;;;;;;;;;3.44;63.39;99885.59;1437824;90;21602;-81
2023/03/14 01:31:21;;;;;;;20.03;10.53;;;;;;;3.46;63.79;99875.02;1435869;91;20316;-81
2023/03/14 01:33:48;;;;;;;16.13;9.50;;;;;;;3.44;63.39;99876.44;1428492;91;21623;-80
2023/03/14 01:36:18;;;;;;;21.03;10.30;;;;;;;3.40;63.60;99878.93;1437796;91;21460;-81
2023/03/14 01:38:46;;;;;;;21.23;9.57;;;;;;;3.37;63.39;99870.01;1431588;91;21710;-81
2023/03/14 01:41:20;;;;;;;17.57;10.07;;;;;;;3.32;63.43;99874.74;1433585;91;21779;-80
2023/03/14 01:43:49;;;;;;;14.37;9.53;;;;;;;3.26;63.71;99869.97;1431043;91;21584;-80
2023/03/14 01:46:38;;;;;;;17.67;10.20;;;;;;;3.20;64.01;99867.82;1438667;91;21608;-80
2023/03/14 01:49:32;;;;;;;16.33;10.67;;;;;;;3.15;64.90;99861.61;1433552;91;21900;-80
2023/03/14 01:52:04;;;;;;;19.17;10.30;;;;;;;3.06;65.24;99863.13;1435341;91;21755;-81
2023/03/14 01:55:01;;;;;;;20.00;10.77;;;;;;;3.01;65.56;99854.78;1438767;91;21579;-80
2023/03/14 01:57:42;;;;;;;18.83;10.87;;;;;;;2.97;65.99;99857.76;1427494;91;21687;-80
2023/03/14 02:00:15;;;;;;;18.23;9.83;;;;;;;2.89;66.07;99854.39;1430306;91;21649;-81
2023/03/14 02:02:50;;;;;;;19.17;9.63;;;;;;;2.84;66.01;99849.96;1434190;91;22567;-81
2023/03/14 02:05:24;;;;;;;19.10;10.97;;;;;;;2.81;65.95;99848.87;1429028;91;21752;-81
2023/03/14 02:07:55;;;;;;;19.07;10.20;;;;;;;2.76;66.04;99837.92;1441202;91;21764;-81
2023/03/14 02:10:32;;;;;;;31.75;13.32;;;;;;;2.72;66.57;99845.16;1434320;91;21663;-80
2023/03/14 02:13:04;;;;;;;18.27;11.17;;;;;;;2.69;66.96;99847.52;1426816;91;22384;-81
2023/03/14 02:15:32;;;;;;;;;;;;;;;2.66;66.73;99854.75;1428219;91;21640;-81
2023/03/14 02:18:01;;;;;;;21.10;9.57;;;;;;;2.59;68.40;99854.38;1433592;91;20287;-81
2023/03/14 02:20:55;;;;;;;18.17;11.27;;;;;;;2.55;67.47;99850.77;1427412;91;21566;-81
2023/03/14 02:23:36;;;;;;;16.17;9.70;;;;;;;2.52;66.99;99843.98;1421172;91;21569;-79
2023/03/14 02:26:27;;;;;;;13.80;8.37;;;;;;;2.47;68.17;99840.87;1430324;91;21689;-79
2023/03/14 02:28:54;;;;;;;18.65;9.60;;;;;;;2.35;68.54;99836.53;1430060;91;21750;-79
2023/03/14 02:31:23;;;;;;;14.40;9.90;;;;;;;2.21;68.76;99839.64;1429004;91;22368;-80
2023/03/14 02:33:52;;;;;;;15.27;9.03;;;;;;;2.15;69.46;99837.47;1427591;91;21639;-79
2023/03/14 02:36:21;;;;;;;18.57;10.33;;;;;;;2.16;68.19;99833.10;1430429;91;21690;-80
2023/03/14 02:39:12;;;;;;;14.23;9.43;;;;;;;2.17;68.59;99821.23;1445914;91;21581;-80
2023/03/14 02:41:39;;;;;;;14.68;9.18;;;;;;;2.17;68.96;99817.31;1434941;91;22774;-80
2023/03/14 02:44:06;;;;;;;14.13;8.63;;;;;;;2.11;69.18;99809.09;1434768;91;21282;-80
2023/03/14 02:46:34;;;;;;;19.00;9.27;;;;;;;2.09;68.60;99807.88;1429649;91;21549;-80
2023/03/14 02:49:06;;;;;;;17.20;9.23;;;;;;;2.06;69.85;99801.57;1430395;91;21615;-80
2023/03/14 02:51:33;;;;;;;16.50;8.33;;;;;;;2.00;70.36;99800.70;1431235;91;21698;-81
2023/03/14 02:54:00;;;;;;;14.93;8.33;;;;;;;2.00;68.97;99796.31;1432633;91;21798;-81
2023/03/14 02:56:28;;;;;;;11.93;7.80;;;;;;;2.01;68.85;99794.53;1427698;91;21585;-81
2023/03/14 02:58:57;;;;;;;19.73;8.60;;;;;;;2.06;68.75;99789.00;1440574;90;21617;-81
2023/03/14 03:01:25;;;;;;;14.77;8.03;;;;;;;2.10;68.77;99784.77;1440299;91;21690;-81
2023/03/14 03:03:53;;;;;;;13.77;8.00;;;;;;;2.12;68.63;99781.55;1437445;91;21620;-80
2023/03/14 03:06:20;;;;;;;17.63;8.83;;;;;;;2.17;68.29;99770.31;1430901;91;21698;-81
2023/03/14 03:08:47;;;;;;;17.97;8.53;;;;;;;2.19;69.02;99768.44;1430666;91;21698;-82
2023/03/14 03:11:14;;;;;;;15.57;8.37;;;;;;;2.17;68.99;99775.54;1437383;91;21689;-81
2023/03/14 03:13:41;;;;;;;15.83;9.27;;;;;;;2.17;68.43;99766.41;1429554;91;22667;-81
2023/03/14 03:16:09;;;;;;;12.93;7.77;;;;;;;2.18;69.39;99768.05;1416579;91;21602;-81
2023/03/14 03:18:36;;;;;;;16.40;8.80;;;;;;;2.21;69.03;99767.01;1438435;91;21528;-81
2023/03/14 03:21:05;;;;;;;12.73;8.23;;;;;;;2.19;69.61;99764.52;1432986;91;21594;-81
2023/03/14 03:23:33;;;;;;;15.07;8.30;;;;;;;2.20;69.09;99760.95;1432339;91;22554;-81
2023/03/14 03:26:00;;;;;;;17.10;8.70;;;;;;;2.18;69.49;99749.78;1427205;91;21614;-79
2023/03/14 03:28:27;;;;;;;18.80;8.03;;;;;;;2.17;69.14;99750.73;1432127;91;22588;-80
2023/03/14 03:30:54;;;;;;;13.67;7.07;;;;;;;2.17;69.01;99734.24;1433514;91;21650;-79
2023/03/14 03:33:23;;;;;;;11.67;6.93;;;;;;;2.15;69.03;99734.34;1431127;91;21616;-80
2023/03/14 03:35:52;;;;;;;10.50;6.47;;;;;;;2.18;68.69;99729.38;1436192;91;22545;-79
2023/03/14 03:38:20;;;;;;;16.37;8.43;;;;;;;2.24;68.40;99733.70;1436110;91;22464;-78
2023/03/14 03:40:47;;;;;;;11.83;6.77;;;;;;;2.29;68.91;99727.30;1439206;91;21949;-79
2023/03/14 03:43:14;;;;;;;14.20;6.70;;;;;;;2.35;68.72;99732.06;1439516;91;21649;-81
2023/03/14 03:45:42;;;;;;;16.43;6.90;;;;;;;2.41;68.62;99734.23;1430855;91;22602;-81
2023/03/14 03:48:10;;;;;;;11.97;6.73;;;;;;;2.44;68.46;99726.16;1426909;91;21671;-81
2023/03/14 03:50:46;;;;;;;13.63;7.20;;;;;;;2.42;68.77;99726.30;1438144;91;21786;-81
2023/03/14 03:53:14;;;;;;;13.77;7.43;;;;;;;2.45;68.04;99723.94;1438005;91;22531;-81
2023/03/14 03:55:42;;;;;;;12.83;7.03;;;;;;;2.47;68.17;99718.10;1434876;91;21609;-80
2023/03/14 03:58:09;;;;;;;12.73;7.27;;;;;;;2.47;68.55;99710.27;1431113;91;21615;-80
2023/03/14 04:00:36;;;;;;;10.07;6.23;;;;;;;2.47;68.33;99699.81;1434868;91;21848;-80
2023/03/14 04:03:03;;;;;;;13.83;8.17;;;;;;;2.47;68.28;99693.28;1430650;91;21541;-80
2023/03/14 04:05:31;;;;;;;15.73;7.33;;;;;;;2.47;68.22;99688.06;1436743;90;22629;-80
2023/03/14 04:07:58;;;;;;;15.27;7.20;;;;;;;2.46;68.22;99683.80;1438602;91;21643;-80
2023/03/14 04:10:26;;;;;;;13.00;7.50;;;;;;;2.49;67.85;99680.95;1433989;91;21587;-80
2023/03/14 04:12:53;;;;;;;16.57;8.10;;;;;;;2.52;67.95;99679.42;1437920;91;22624;-80
2023/03/14 04:15:20;;;;;;;16.37;7.10;;;;;;;2.56;68.27;99677.41;1434072;91;21750;-80
2023/03/14 04:17:47;;;;;;;14.27;6.87;;;;;;;2.60;67.66;99674.45;1426888;91;22588;-80
2023/03/14 04:20:14;;;;;;;10.13;6.17;;;;;;;2.64;67.76;99665.43;1425245;91;21658;-80
2023/03/14 04:22:42;;;;;;;13.57;7.83;;;;;;;2.69;67.79;99663.31;1428518;91;21792;-80
2023/03/14 04:25:09;;;;;;;12.43;5.77;;;;;;;2.74;67.55;99661.67;1430922;91;21751;-81
2023/03/14 04:27:36;;;;;;;9.20;5.43;;;;;;;2.77;67.54;99665.35;1433649;91;21593;-80
2023/03/14 04:30:04;;;;;;;13.97;8.03;;;;;;;2.78;67.35;99661.78;1431727;91;21613;-80
2023/03/14 04:32:31;;;;;;;23.20;13.07;;;;;;;2.73;68.50;99664.38;1432613;91;21590;-79
2023/03/14 04:34:58;;;;;;;16.37;8.87;;;;;;;2.61;68.93;99660.44;1433398;91;21710;-80
2023/03/14 04:37:25;;;;;;;19.73;10.50;;;;;;;2.52;69.42;99661.13;1437144;91;21741;-80
2023/03/14 04:39:52;;;;;;;21.40;11.50;;;;;;;2.40;69.56;99651.13;1427309;91;21610;-80
2023/03/14 04:42:19;;;;;;;22.97;10.93;;;;;;;2.37;69.62;99653.14;1429127;91;21587;-79
2023/03/14 04:44:49;;;;;;;17.27;8.97;;;;;;;2.34;69.13;99648.16;1441277;90;21723;-79
2023/03/14 04:47:16;;;;;;;15.07;8.17;;;;;;;2.30;69.29;99629.73;1432632;91;22730;-79
2023/03/14 04:49:43;;;;;;;20.23;8.40;;;;;;;2.26;69.44;99629.95;1431088;91;21551;-80
2023/03/14 04:52:10;;;;;;;19.37;9.17;;;;;;;2.18;69.33;99630.99;1434369;91;22771;-81
2023/03/14 04:54:37;;;;;;;16.53;9.83;;;;;;;2.12;69.17;99634.54;1433943;91;21656;-80
2023/03/14 04:57:05;;;;;;;15.43;7.27;;;;;;;2.12;69.22;99631.92;1438044;90;22786;-80
2023/03/14 04:59:32;;;;;;;16.33;8.97;;;;;;;2.13;69.24;99620.08;1431234;91;21694;-80
2023/03/14 05:01:59;;;;;;;15.60;8.10;;;;;;;2.13;69.48;99621.84;1439421;91;22386;-80
2023/03/14 05:04:26;;;;;;;19.07;8.07;;;;;;;2.11;69.85;99616.74;1443607;91;21661;-79
2023/03/14 05:06:53;;;;;;;18.23;8.33;;;;;;;2.06;70.59;99610.20;1437189;91;21543;-79
2023/03/14 05:09:21;;;;;;;17.57;8.23;;;;;;;2.01;70.55;99609.22;1428204;91;21655;-79
2023/03/14 05:11:48;;;;;;;19.23;8.40;;;;;;;2.03;69.70;99607.34;1434487;91;22645;-78
2023/03/14 05:14:15;;;;;;;17.97;9.07;;;;;;;2.10;69.48;99612.48;1428722;91;21625;-80
2023/03/14 05:16:42;;;;;;;15.10;7.90;;;;;;;2.16;69.58;99610.72;1439945;91;21720;-80
2023/03/14 05:19:11;;;;;;;10.80;7.23;;;;;;;2.18;70.08;99607.50;1440466;91;21585;-79
2023/03/14 05:21:38;;;;;;;30.90;9.37;;;;;;;2.26;69.36;99605.63;1434199;91;21670;-80
2023/03/14 05:24:05;;;;;;;20.80;8.33;;;;;;;2.31;70.18;99609.22;1441493;91;21557;-80
2023/03/14 05:26:33;;;;;;;13.03;8.07;;;;;;;2.28;70.63;99610.75;1429722;91;21544;-79
2023/03/14 05:29:00;;;;;;;11.47;6.97;;;;;;;2.25;71.16;99610.02;1435575;91;21615;-79
2023/03/14 05:31:27;;;;;;;16.23;8.33;;;;;;;2.28;71.18;99607.66;1432050;91;21446;-80
2023/03/14 05:33:54;;;;;;;11.27;7.03;;;;;;;2.35;70.71;99616.69;1431222;91;21474;-80
2023/03/14 05:36:21;;;;;;;11.67;7.70;;;;;;;2.44;70.30;99619.08;1430291;91;21663;-80
2023/03/14 05:38:48;;;;;;;15.63;7.13;;;;;;;2.47;70.37;99615.79;1433939;91;21543;-79
2023/03/14 05:41:16;;;;;;;15.37;7.40;;;;;;;2.57;69.92;99608.55;1428349;91;22118;-79
2023/03/14 05:43:43;;;;;;;11.93;6.40;;;;;;;2.63;69.61;99618.05;1431663;91;22317;-78
2023/03/14 05:46:10;;;;;;;13.53;6.83;;;;;;;2.73;69.63;99616.04;1429959;91;21607;-79
2023/03/14 05:48:37;;;;;;;15.03;7.87;;;;;;;2.81;69.80;99609.76;1432080;91;22226;-80
2023/03/14 05:51:05;;;;;;;12.43;6.23;;;;;;;2.91;69.91;99609.42;1431549;91;22718;-80
2023/03/14 05:53:32;;;;;;;11.53;7.00;;;;;;;2.98;70.08;99610.59;1435770;91;21618;-81
2023/03/14 05:55:59;;;;;;;35.67;9.27;;;;;;;3.04;69.79;99612.72;1417090;91;22436;-80
2023/03/14 05:58:27;;;;;;;55.83;9.67;;;;;;;3.12;70.47;99611.66;1428554;91;21661;-80
2023/03/14 06:00:54;;;;;;;15.03;8.80;;;;;;;3.17;70.14;99610.00;1432004;91;21729;-80
2023/03/14 06:03:22;;;;;;;18.83;8.57;;;;;;;3.26;69.91;99608.45;1436556;91;21660;-79
2023/03/14 06:05:51;;;;;;;15.30;8.10;;;;;;;3.34;69.82;99607.38;1427328;91;21699;-80
2023/03/14 06:08:18;;;;;;;12.93;8.20;;;;;;;3.46;69.85;99610.31;1434303;91;21700;-79
2023/03/14 06:10:45;;;;;;;17.10;8.93;;;;;;;3.58;69.72;99611.11;1434763;91;21713;-79
2023/03/14 06:13:13;;;;;;;14.67;8.93;;;;;;;3.69;69.68;99608.95;1427185;91;21720;-79
2023/03/14 06:15:40;;;;;;;19.73;9.60;;;;;;;3.79;69.69;99604.63;1435989;91;21844;-80
2023/03/14 06:18:07;;;;;;;17.23;10.80;;;;;;;3.94;69.38;99611.25;1427853;91;21820;-80
2023/03/14 06:20:43;;;;;;;26.67;8.77;;;;;;;3.94;69.38;99611.25;1438662;91;22576;-80
2023/03/14 06:23:09;;;;;;;26.60;8.97;;;;;;;4.06;69.31;99607.63;1424757;91;22043;-79
2023/03/14 06:25:36;;;;;;;20.97;11.17;;;;;;;4.23;69.32;99606.69;1430752;91;22667;-79
2023/03/14 06:28:04;;;;;;;22.63;11.00;;;;;;;4.35;68.82;99607.00;1433193;91;21975;-79
2023/03/14 06:30:31;;;;;;;17.30;9.37;;;;;;;4.35;68.82;99607.00;1430648;91;22017;-81
2023/03/14 06:32:58;;;;;;;15.23;9.60;;;;;;;4.50;68.49;99604.40;1438176;91;22100;-80
2023/03/14 06:35:26;;;;;;;20.17;10.33;;;;;;;4.50;68.49;99593.92;1427992;91;22543;-80
2023/03/14 06:37:53;;;;;;;22.27;10.80;;;;;;;4.58;68.17;99606.39;1430942;91;22081;-81
2023/03/14 06:40:20;;;;;;;18.33;10.57;;;;;;;4.60;68.23;99595.27;1429869;91;22187;-80
2023/03/14 06:42:48;;;;;;;17.57;9.27;;;;;;;4.77;68.26;99595.16;1430255;91;22154;-80
2023/03/14 06:45:15;;;;;;;17.00;8.63;;;;;;;4.91;68.29;99593.49;1431411;91;22129;-80
2023/03/14 06:47:43;;;;;;;18.57;10.50;;;;;;;5.01;68.89;99604.53;1435010;91;22314;-81
2023/03/14 06:50:10;;;;;;;20.30;11.33;;;;;;;5.09;69.11;99596.80;1426089;91;22074;-79
2023/03/14 06:52:41;;;;;;;38.33;19.60;;;;;;;5.25;68.88;99596.31;1435566;91;23146;-80
2023/03/14 06:55:09;;;;;;;69.53;35.33;;;;;;;5.36;68.67;99590.48;1432703;91;22174;-80
2023/03/14 06:57:36;;;;;;;75.33;33.13;;;;;;;5.48;68.08;99591.68;1426237;91;22167;-81
2023/03/14 07:00:06;;;;;;;57.17;23.37;;;;;;;5.61;67.58;99594.40;1420241;91;23049;-80
2023/03/14 07:02:33;;;;;;;49.83;21.40;;;;;;;5.72;67.03;99585.55;1434271;91;22100;-80
2023/03/14 07:05:01;;;;;;;30.90;17.13;;;;;;;5.83;66.59;99580.66;1434380;91;22004;-79
2023/03/14 07:07:28;;;;;;;20.90;12.63;;;;;;;5.95;66.38;99573.50;1440094;91;22231;-80
2023/03/14 07:09:55;;;;;;;19.10;12.97;;;;;;;6.07;65.25;99563.19;1438073;91;22230;-80
2023/03/14 07:12:23;;;;;;;19.50;11.73;;;;;;;6.07;65.25;99563.19;1433632;91;22399;-81
2023/03/14 07:14:50;;;;;;;29.33;13.37;;;;;;;6.10;64.79;99562.44;1427499;91;22095;-81
2023/03/14 07:17:17;;;;;;;38.80;19.47;;;;;;;6.22;64.86;99568.38;1438537;91;22553;-80
2023/03/14 07:19:44;;;;;;;35.73;19.10;;;;;;;6.22;64.86;99568.38;1431809;91;21297;-81
2023/03/14 07:22:11;;;;;;;36.50;19.77;;;;;;;6.37;64.79;99565.30;1437481;91;21445;-79
2023/03/14 07:24:39;;;;;;;48.07;20.10;;;;;;;6.50;64.71;99557.45;1440274;91;21482;-80
2023/03/14 07:27:06;;;;;;;35.90;18.33;;;;;;;6.63;64.21;99557.13;1439661;91;21303;-84
2023/03/14 07:29:33;;;;;;;27.57;15.13;;;;;;;6.76;64.12;99556.34;1434420;91;21437;-84
2023/03/14 07:32:04;;;;;;;22.73;11.80;;;;;;;6.94;64.08;99547.19;1426740;91;22244;-84
2023/03/14 07:34:31;;;;;;;18.85;10.15;;;;;;;7.12;63.59;99541.97;1439487;91;21511;-84
2023/03/14 07:36:58;;;;;;;17.33;8.73;;;;;;;7.30;63.27;99541.17;1432349;91;21606;-84
2023/03/14 07:39:25;;;;;;;16.57;8.23;;;;;;;7.44;62.29;99541.98;1430813;91;21623;-85
2023/03/14 07:41:52;;;;;;;14.50;6.43;;;;;;;7.55;61.57;99525.97;1434555;90;21378;-86
2023/03/14 07:44:19;;;;;;;14.17;5.57;;;;;;;7.68;61.08;99529.06;1432862;91;21392;-83
2023/03/14 07:46:47;;;;;;;17.30;7.07;;;;;;;7.83;60.48;99528.53;1429839;91;21523;-84
2023/03/14 07:49:14;;;;;;;13.40;6.40;;;;;;;7.98;59.96;99525.68;1430141;91;21444;-82
2023/03/14 07:51:43;;;;;;;15.03;5.80;;;;;;;8.13;58.60;99516.23;1432415;91;22471;-83
2023/03/14 07:54:11;;;;;;;11.73;4.97;;;;;;;8.30;58.55;99515.03;1433349;91;22440;-85
2023/03/14 07:56:38;;;;;;;10.83;5.33;;;;;;;8.46;58.27;99511.22;1434145;91;21459;-82
2023/03/14 07:59:05;;;;;;;10.90;4.63;;;;;;;8.62;57.73;99507.82;1431811;91;21356;-84
2023/03/14 08:01:32;;;;;;;9.40;3.70;;;;;;;8.74;53.92;99505.73;1436200;91;21318;-85
2023/03/14 08:04:00;;;;;;;8.77;4.73;;;;;;;8.90;53.64;99491.30;1431447;91;21407;-84
2023/03/14 08:06:27;;;;;;;11.07;4.20;;;;;;;9.07;53.28;99488.72;1430802;91;22323;-84
2023/03/14 08:08:54;;;;;;;7.43;3.33;;;;;;;9.22;51.28;99481.81;1433828;91;22018;-84
2023/03/14 08:11:22;;;;;;;9.90;3.40;;;;;;;9.46;49.36;99487.62;1429491;91;21505;-86
2023/03/14 08:13:50;;;;;;;11.67;2.63;;;;;;;9.76;46.47;99483.53;1432021;91;21481;-86
2023/03/14 08:16:17;;;;;;;16.97;2.97;;;;;;;10.10;45.31;99485.98;1431607;91;21541;-88
2023/03/14 08:18:45;;;;;;;14.77;3.00;;;;;;;10.38;43.19;99481.64;1434806;91;21532;-81
2023/03/14 08:21:13;;;;;;;11.53;2.50;;;;;;;10.57;41.64;99481.77;1430938;91;21407;-78
2023/03/14 08:23:41;;;;;;;15.63;3.37;;;;;;;10.83;44.01;99479.67;1428421;91;21615;-83
2023/03/14 08:26:08;;;;;;;5.40;2.50;;;;;;;11.03;43.23;99477.94;1429500;91;21385;-81
2023/03/14 08:28:35;;;;;;;3.63;2.13;;;;;;;11.17;41.26;99463.13;1427146;91;21407;-80
2023/03/14 08:31:03;;;;;;;7.43;2.10;;;;;;;11.29;41.38;99453.27;1426895;91;21392;-85
2023/03/14 08:33:31;;;;;;;10.90;3.10;;;;;;;11.37;39.47;99460.86;1432133;91;21414;-82
2023/03/14 08:36:00;;;;;;;5.00;2.10;;;;;;;11.40;39.88;99460.50;1433654;91;22317;-82
2023/03/14 08:38:30;;;;;;;15.00;3.00;;;;;;;11.46;39.66;99465.09;1438889;91;21430;-82
2023/03/14 08:41:00;;;;;;;4.80;2.37;;;;;;;11.54;39.84;99463.70;1426862;91;22332;-81
2023/03/14 08:43:28;;;;;;;13.77;2.73;;;;;;;11.61;39.36;99461.16;1427906;91;21341;-83
2023/03/14 08:46:00;;;;;;;11.13;2.60;;;;;;;11.66;39.74;99459.63;1429059;91;21533;-83
2023/03/14 08:48:29;;;;;;;13.33;2.90;;;;;;;11.67;38.43;99461.27;1436364;91;22361;-83
2023/03/14 08:51:06;;;;;;;14.67;3.63;;;;;;;11.70;38.45;99455.61;1434203;91;22385;-84
2023/03/14 08:53:33;;;;;;;13.40;2.87;;;;;;;11.72;38.04;99452.29;1428047;90;21341;-83
2023/03/14 08:56:01;;;;;;;7.20;2.70;;;;;;;11.83;38.63;99450.22;1430844;91;21518;-80
2023/03/14 08:58:29;;;;;;;10.93;2.97;;;;;;;11.88;38.68;99449.19;1435175;91;21518;-81
2023/03/14 09:00:56;;;;;;;12.20;3.47;;;;;;;11.88;37.94;99457.14;1435365;91;21429;-83
2023/03/14 09:03:25;;;;;;;7.07;4.07;;;;;;;11.87;38.55;99449.70;1435058;91;22561;-82
2023/03/14 09:05:52;;;;;;;14.97;3.93;;;;;;;11.95;38.36;99443.51;1423557;91;21465;-83
2023/03/14 09:08:20;;;;;;;15.87;4.43;;;;;;;12.05;39.13;99433.45;1426126;91;21444;-81
2023/03/14 09:10:47;;;;;;;12.37;4.30;;;;;;;12.06;37.73;99439.09;1431492;90;21386;-84
2023/03/14 09:13:14;;;;;;;19.60;3.97;;;;;;;12.14;38.72;99446.12;1434389;91;21444;-81
2023/03/14 09:15:42;;;;;;;10.70;4.17;;;;;;;12.19;38.59;99441.10;1431736;91;22428;-82
2023/03/14 09:18:09;;;;;;;18.60;3.70;;;;;;;12.22;38.81;99438.59;1429824;91;21428;-81
2023/03/14 09:20:36;;;;;;;20.60;3.83;;;;;;;12.19;37.54;99426.52;1433094;91;21400;-81
2023/03/14 09:23:03;;;;;;;19.67;3.67;;;;;;;12.23;37.70;99421.66;1434556;91;21540;-81
2023/03/14 09:25:30;;;;;;;19.27;5.53;;;;;;;12.26;37.68;99419.48;1431523;91;21414;-81
2023/03/14 09:27:57;;;;;;;15.73;3.73;;;;;;;12.30;37.81;99418.61;1430559;91;22346;-80
2023/03/14 09:30:25;;;;;;;18.50;3.73;;;;;;;12.31;37.38;99414.43;1439540;91;21429;-79
2023/03/14 09:32:52;;;;;;;14.30;4.13;;;;;;;12.32;36.91;99408.64;1414830;91;21422;-79
2023/03/14 09:35:19;;;;;;;16.60;3.63;;;;;;;12.42;37.74;99409.17;1434943;91;22434;-80
2023/03/14 09:37:46;;;;;;;20.23;3.97;;;;;;;12.47;37.38;99397.51;1432173;91;21529;-78
2023/03/14 09:40:16;;;;;;;17.93;3.80;;;;;;;12.44;36.91;99397.88;1428170;91;21856;-79
2023/03/14 09:42:44;;;;;;;6.55;2.60;;;;;;;12.40;36.73;99397.43;1425245;91;21781;-80
2023/03/14 09:45:17;;;;;;;15.17;2.83;;;;;;;12.51;37.71;99393.46;1429774;91;22288;-80
2023/03/14 09:47:45;;;;;;;15.00;3.03;;;;;;;12.55;37.72;99393.42;1429776;91;21420;-80
2023/03/14 09:50:15;;;;;;;9.40;2.60;;;;;;;12.58;37.51;99383.77;1431372;91;21529;-79
2023/03/14 09:52:47;;;;;;;9.03;4.03;;;;;;;12.68;37.25;99386.11;1433829;91;21644;-80
2023/03/14 09:55:23;;;;;;;8.03;2.77;;;;;;;12.78;37.69;99376.55;1432214;91;21384;-77
2023/03/14 09:57:58;;;;;;;10.47;3.23;;;;;;;12.91;37.11;99367.38;1430053;91;21407;-79
2023/03/14 10:00:28;;;;;;;10.17;5.00;;;;;;;13.05;36.13;99365.68;1432136;91;21399;-76
2023/03/14 10:03:13;;;;;;;13.53;3.42;;;;;;;13.23;37.08;99363.90;1436072;91;21996;-79
2023/03/14 10:05:43;;;;;;;11.57;3.27;;;;;;;13.38;36.18;99352.73;1426842;91;21569;-80
2023/03/14 10:08:13;;;;;;;13.03;3.67;;;;;;;13.56;36.72;99359.42;1423339;91;21408;-80
2023/03/14 10:10:42;;;;;;;10.63;3.03;;;;;;;13.70;35.40;99354.52;1435065;91;21526;-80
2023/03/14 10:13:17;;;;;;;9.77;3.00;;;;;;;13.86;35.66;99358.19;1427269;91;21430;-80
2023/03/14 10:16:05;;;;;;;13.67;3.30;;;;;;;13.97;35.34;99366.95;1433701;91;21414;-81
2023/03/14 10:18:38;;;;;;;9.03;3.37;;;;;;;14.04;34.81;99359.52;1440312;91;21430;-79
2023/03/14 10:21:26;;;;;;;8.45;2.92;;;;;;;14.15;33.90;99341.16;1430522;91;22251;-80
2023/03/14 10:23:54;;;;;;;15.60;2.90;;;;;;;14.31;34.40;99334.70;1434043;91;21954;-81
2023/03/14 10:26:27;;;;;;;11.03;3.37;;;;;;;14.51;33.61;99341.94;1429856;91;22585;-80
2023/03/14 10:29:05;;;;;;;11.97;3.10;;;;;;;14.73;33.74;99334.16;1431737;91;21511;-81
2023/03/14 10:31:47;;;;;;;18.30;4.73;;;;;;;15.03;33.32;99331.14;1435102;91;22538;-80
2023/03/14 10:34:19;;;;;;;11.93;3.90;;;;;;;15.29;33.34;99321.82;1430109;90;22406;-80
2023/03/14 10:36:48;;;;;;;16.13;5.00;;;;;;;15.52;32.29;99312.59;1436909;90;23138;-80
2023/03/14 10:39:29;;;;;;;19.20;3.77;;;;;;;15.73;32.06;99315.03;1433450;90;21459;-80
2023/03/14 10:42:16;;;;;;;14.05;3.37;;;;;;;15.93;31.71;99300.84;1434425;91;21935;-80
2023/03/14 10:44:44;;;;;;;11.87;3.17;;;;;;;16.00;30.82;99294.46;1436762;91;21377;-80
2023/03/14 10:47:19;;;;;;;17.13;3.90;;;;;;;16.25;31.41;99295.07;1430424;91;21422;-79
2023/03/14 10:49:46;;;;;;;19.10;4.27;;;;;;;16.42;30.47;99291.41;1438671;91;21508;-84
2023/03/14 10:52:29;;;;;;;16.77;3.37;;;;;;;16.53;30.76;99288.06;1431194;91;21392;-80
2023/03/14 10:55:03;;;;;;;19.97;3.40;;;;;;;16.66;30.54;99275.97;1428765;91;21599;-81
2023/03/14 10:57:30;;;;;;;16.00;3.27;;;;;;;16.80;30.33;99266.55;1427817;91;22390;-81
2023/03/14 10:59:57;;;;;;;14.73;3.93;;;;;;;16.84;29.88;99263.77;1435789;91;21485;-82
2023/03/14 11:02:42;;;;;;;10.37;3.53;;;;;;;16.94;30.89;99266.75;1429924;91;21483;-80
2023/03/14 11:05:24;;;;;;;26.60;4.80;;;;;;;17.08;30.12;99258.94;1431003;91;21607;-81
2023/03/14 11:07:56;;;;;;;13.27;3.77;;;;;;;17.28;29.94;99253.94;1433352;91;21393;-80
2023/03/14 11:10:42;;;;;;;16.77;3.33;;;;;;;17.46;29.98;99256.64;1434060;91;22589;-81
2023/03/14 11:13:43;;;;;;;9.90;3.80;;;;;;;17.51;29.94;99254.13;1431089;91;21289;-80
2023/03/14 11:16:25;;;;;;;11.05;3.50;;;;;;;17.47;29.30;99245.44;1370469;95;21536;-80
2023/03/14 11:19:08;;;;;;;10.13;4.13;;;;;;;17.46;29.37;99249.95;1434509;91;21400;-80
2023/03/14 11:21:59;;;;;;;9.03;3.40;;;;;;;17.48;29.71;99239.05;1434293;91;22448;-80
2023/03/14 11:24:47;;;;;;;12.40;3.50;;;;;;;17.50;29.58;99233.77;1424644;91;21528;-80
2023/03/14 11:27:44;;;;;;;7.60;3.00;;;;;;;17.65;29.72;99236.61;1439497;91;21503;-81
2023/03/14 11:30:23;;;;;;;10.80;3.70;;;;;;;17.66;30.12;99231.55;1429371;91;21559;-80
2023/03/14 11:33:11;;;;;;;11.07;3.13;;;;;;;17.73;30.16;99222.94;1434881;91;21392;-80
2023/03/14 11:35:49;;;;;;;14.13;3.20;;;;;;;17.93;29.98;99202.66;1425501;91;21428;-81
2023/03/14 11:38:45;;;;;;;9.60;3.03;;;;;;;18.08;29.74;99191.55;1430631;91;21554;-80
2023/03/14 11:41:26;;;;;;;13.00;3.50;;;;;;;18.23;29.03;99183.91;1429865;91;21474;-80
2023/03/14 11:43:58;;;;;;;16.10;3.43;;;;;;;18.52;29.59;99174.21;1433141;91;22504;-80